Time;durP1;ratioP1;P1;durP2;ratioP2;P2;SDS_P1;SDS_P2;PMS_P1;PMS_P2;Temp;Humidity;BMP_temperature;BMP_pressure;BME280_temperature;BME280_humidity;BME280_pressure;Samples;Min_cycle;Max_cycle;Signal;HPM_P1;HPM_P2
2021/10/09 00:01:59;;;;;;;9.75;3.70;;;;;;;30.43;72.87;100628.13;5013446;28;69159;-37
2021/10/09 00:04:30;;;;;;;12.38;4.05;;;;;;;30.33;72.68;100625.09;5048441;28;66568;-38
2021/10/09 00:07:02;;;;;;;12.50;5.05;;;;;;;30.16;73.42;100620.22;5042240;28;70454;-39
2021/10/09 00:09:34;;;;;;;8.90;4.80;;;;;;;30.19;73.67;100636.00;5050179;28;66224;-37
2021/10/09 00:12:15;;;;;;;11.13;5.13;;;;;;;30.22;73.96;100630.19;5049859;28;69373;-37
2021/10/09 00:14:48;;;;;;;6.57;4.18;;;;;;;29.98;73.95;100585.03;5001373;28;65727;-37
2021/10/09 00:17:29;;;;;;;9.02;4.40;;;;;;;30.25;74.04;100629.72;5052837;28;70559;-37
2021/10/09 00:20:19;;;;;;;5.85;4.22;;;;;;;29.96;73.91;100581.72;5047188;28;66372;-39
2021/10/09 00:23:25;;;;;;;6.30;4.60;;;;;;;30.38;74.33;100644.19;5050047;28;70613;-39
2021/10/09 00:26:06;;;;;;;14.60;4.60;;;;;;;30.22;74.65;100618.53;5029218;28;65792;-37
2021/10/09 00:28:53;;;;;;;8.68;4.00;;;;;;;30.39;74.98;100648.56;5016891;28;70718;-37
2021/10/09 00:31:36;;;;;;;6.72;4.72;;;;;;;30.40;75.06;100653.75;5050988;28;65411;-39
2021/10/09 00:34:48;;;;;;;7.57;4.78;;;;;;;30.25;74.91;100651.38;5033840;28;69072;-39
2021/10/09 00:38:28;;;;;;;9.95;4.07;;;;;;;30.32;74.76;100661.34;5048652;28;65648;-39
2021/10/09 00:41:35;;;;;;;6.28;4.53;;;;;;;30.48;74.54;100672.41;5046185;28;70123;-39
2021/10/09 00:44:25;;;;;;;17.85;4.50;;;;;;;30.53;75.14;100674.44;5053493;28;66016;-39
2021/10/09 00:47:12;;;;;;;11.98;4.55;;;;;;;30.57;75.01;100678.38;5024944;28;70141;-39
2021/10/09 00:50:02;;;;;;;8.10;4.40;;;;;;;30.56;74.33;100679.41;5023305;28;65670;-39
2021/10/09 00:52:40;;;;;;;7.78;4.88;;;;;;;30.59;74.53;100687.09;5045126;28;69588;-38
2021/10/09 00:55:26;;;;;;;9.30;4.53;;;;;;;30.57;74.28;100682.97;5018917;28;65762;-38
2021/10/09 00:58:35;;;;;;;6.85;4.53;;;;;;;30.56;74.61;100692.94;5026316;28;70046;-39
2021/10/09 01:01:37;;;;;;;6.80;4.15;;;;;;;30.59;74.53;100697.94;5036826;28;65642;-39
2021/10/09 01:04:41;;;;;;;10.00;4.82;;;;;;;30.62;74.69;100700.19;5041369;28;69869;-38
2021/10/09 01:07:56;;;;;;;5.32;4.82;;;;;;;30.50;74.94;100699.25;5046223;27;66528;-39
2021/10/09 01:10:56;;;;;;;6.65;5.57;;;;;;;30.61;74.82;100706.63;5043050;28;70372;-39
2021/10/09 01:14:00;;;;;;;6.47;4.72;;;;;;;30.61;74.82;100712.06;5058622;28;66327;-37
2021/10/09 01:17:46;;;;;;;10.00;5.07;;;;;;;30.56;75.28;100705.66;5057364;27;69931;-37
2021/10/09 01:21:27;;;;;;;7.50;5.10;;;;;;;30.45;74.90;100680.13;5040242;28;66358;-37
2021/10/09 01:24:34;;;;;;;6.88;5.18;;;;;;;30.61;75.43;100708.53;5051286;28;70085;-37
2021/10/09 01:27:40;;;;;;;7.75;5.30;;;;;;;30.64;75.63;100708.91;5038740;28;66380;-38
2021/10/09 01:30:40;;;;;;;5.15;4.65;;;;;;;30.64;75.84;100702.66;5070090;27;70982;-38
2021/10/09 01:33:38;;;;;;;15.85;5.88;;;;;;;30.64;75.76;100698.06;5052445;28;66465;-38
2021/10/09 01:40:14;;;;;;;8.52;5.57;;;;;;;30.69;75.72;100711.78;5049888;28;66381;-38
2021/10/09 01:43:18;;;;;;;7.13;5.55;;;;;;;30.72;75.58;100711.31;5053951;28;69225;-38
2021/10/09 01:46:14;;;;;;;9.55;5.38;;;;;;;30.68;75.24;100703.88;5034632;28;65616;-39
2021/10/09 01:49:40;;;;;;;13.25;5.50;;;;;;;30.71;75.26;100709.69;5047203;28;70770;-39
2021/10/09 01:52:52;;;;;;;8.80;5.47;;;;;;;30.75;75.46;100720.06;5031734;27;66087;-40
2021/10/09 01:55:48;;;;;;;6.88;5.93;;;;;;;30.46;74.92;100662.88;5035260;28;69868;-38
2021/10/09 01:58:54;;;;;;;7.00;5.88;;;;;;;30.42;75.21;100661.63;5040378;28;65937;-37
2021/10/09 02:02:01;;;;;;;7.10;6.20;;;;;;;30.78;74.58;100719.59;5039868;28;70397;-38
2021/10/09 02:04:58;;;;;;;8.38;5.78;;;;;;;30.82;74.43;100720.88;5044673;28;67042;-37
2021/10/09 02:08:16;;;;;;;7.35;5.45;;;;;;;30.82;74.83;100720.88;5027524;28;70255;-39
2021/10/09 02:11:42;;;;;;;8.93;5.13;;;;;;;30.81;74.56;100721.91;4997399;28;66670;-39
2021/10/09 02:14:59;;;;;;;5.22;4.18;;;;;;;30.84;74.15;100719.59;5029408;28;70589;-38
2021/10/09 02:18:28;;;;;;;7.95;4.45;;;;;;;30.84;73.72;100718.75;4973878;28;66622;-40
2021/10/09 02:24:55;;;;;;;8.20;4.40;;;;;;;30.85;74.58;100709.59;4979834;28;66872;-37
2021/10/09 02:27:48;;;;;;;12.80;4.38;;;;;;;30.88;74.03;100711.84;4979222;28;69228;-38
2021/10/09 02:30:49;;;;;;;9.07;4.75;;;;;;;30.86;74.29;100713.94;4959590;28;65417;-37
2021/10/09 02:33:48;;;;;;;6.82;4.18;;;;;;;30.91;74.07;100714.09;4962458;28;69986;-37
2021/10/09 02:36:46;;;;;;;5.50;3.55;;;;;;;30.86;73.97;100712.06;4980165;28;65906;-38
2021/10/09 02:40:02;;;;;;;8.20;4.00;;;;;;;30.71;74.33;100682.59;4979528;28;70261;-39
2021/10/09 02:42:55;;;;;;;8.07;4.35;;;;;;;30.90;73.70;100713.28;4964602;28;66339;-39
2021/10/09 02:45:53;;;;;;;10.05;3.95;;;;;;;30.89;73.68;100705.34;4996701;28;70142;-39
2021/10/09 02:49:06;;;;;;;8.60;3.73;;;;;;;30.90;73.24;100712.44;4984713;28;67145;-38
2021/10/09 02:52:25;;;;;;;5.72;3.42;;;;;;;30.88;73.37;100709.13;4985780;28;69456;-38
2021/10/09 02:55:19;;;;;;;11.15;3.75;;;;;;;30.50;73.57;100634.28;5007902;28;65812;-38
2021/10/09 02:58:06;;;;;;;5.00;3.47;;;;;;;30.91;72.83;100697.84;5023745;28;69890;-39
2021/10/09 03:00:55;;;;;;;9.70;4.05;;;;;;;30.93;73.58;100701.16;5048319;28;65720;-38
2021/10/09 03:03:48;;;;;;;12.38;4.53;;;;;;;30.93;73.23;100693.03;5052569;28;70605;-38
2021/10/09 03:06:36;;;;;;;8.10;3.85;;;;;;;30.95;72.71;100677.38;5046253;28;66244;-39
2021/10/09 03:09:46;;;;;;;6.43;3.70;;;;;;;30.91;73.31;100670.75;5053969;28;69238;-38
2021/10/09 03:13:05;;;;;;;5.13;4.07;;;;;;;30.95;73.26;100671.94;5033346;28;65399;-38
2021/10/09 03:16:16;;;;;;;7.65;4.45;;;;;;;30.90;71.54;100669.94;5057332;28;69865;-39
2021/10/09 03:19:28;;;;;;;6.45;4.28;;;;;;;30.96;71.76;100661.97;5064406;27;66124;-38
2021/10/09 03:23:03;;;;;;;4.38;3.97;;;;;;;30.96;72.47;100665.50;5050922;28;70815;-39
2021/10/09 03:26:44;;;;;;;12.05;4.10;;;;;;;30.93;74.14;100668.66;5052879;28;66031;-38
2021/10/09 03:30:26;;;;;;;14.00;4.82;;;;;;;30.93;75.95;100658.66;5007621;28;70090;-43
2021/10/09 03:34:13;;;;;;;6.88;4.13;;;;;;;30.93;75.72;100658.66;5026242;28;66196;-37
2021/10/09 03:37:12;;;;;;;10.55;4.60;;;;;;;30.96;76.46;100651.97;5043925;28;71154;-37
2021/10/09 03:40:10;;;;;;;4.68;3.72;;;;;;;31.01;76.58;100638.56;5014154;28;66084;-38
2021/10/09 03:43:19;;;;;;;4.53;3.40;;;;;;;30.87;76.67;100616.22;5045771;28;69353;-38
2021/10/09 03:46:39;;;;;;;8.63;3.53;;;;;;;30.99;76.46;100632.53;5017710;28;66359;-39
2021/10/09 03:49:57;;;;;;;5.53;3.78;;;;;;;31.01;76.81;100643.97;5035398;28;70125;-38
2021/10/09 03:53:00;;;;;;;7.03;3.42;;;;;;;31.03;76.14;100639.13;5047791;28;66233;-38
2021/10/09 03:55:53;;;;;;;9.18;3.50;;;;;;;31.08;74.58;100633.88;5032126;28;69825;-37
2021/10/09 03:58:49;;;;;;;6.85;3.60;;;;;;;31.12;73.25;100640.50;5034213;28;65095;-37
2021/10/09 04:01:40;;;;;;;11.50;3.83;;;;;;;31.15;73.32;100623.78;5040038;28;68979;-38
2021/10/09 04:04:28;;;;;;;5.60;3.65;;;;;;;31.12;71.95;100610.72;5051381;28;66120;-37
2021/10/09 04:07:39;;;;;;;4.78;3.22;;;;;;;31.16;72.27;100620.00;5054384;28;69264;-38
2021/10/09 04:10:40;;;;;;;14.65;3.22;;;;;;;31.22;71.23;100607.44;5048594;28;66592;-38
2021/10/09 04:13:47;;;;;;;8.80;3.25;;;;;;;31.19;71.35;100607.06;5050968;28;70772;-38
2021/10/09 04:16:24;;;;;;;6.47;2.92;;;;;;;31.29;71.47;100612.78;5048339;28;65411;-38
2021/10/09 04:19:04;;;;;;;4.15;3.00;;;;;;;31.32;70.88;100599.59;5033472;28;68329;-39
2021/10/09 04:21:39;;;;;;;5.80;3.65;;;;;;;31.33;71.04;100603.13;5046218;28;65633;-38
2021/10/09 04:24:15;;;;;;;4.20;2.88;;;;;;;31.36;70.90;100597.28;5038639;28;69386;-39
2021/10/09 04:26:55;;;;;;;;;;;;;;;31.13;71.92;100585.25;5033437;28;65986;-37
2021/10/09 04:29:53;;;;;;;3.30;3.00;;;;;;;31.37;71.50;100585.34;5043427;28;70255;-38
2021/10/09 04:32:30;;;;;;;3.17;2.83;;;;;;;31.36;71.12;100572.88;5045276;28;66325;-38
2021/10/09 04:35:09;;;;;;;3.90;3.17;;;;;;;31.43;71.44;100565.47;5047070;28;70064;-38
2021/10/09 04:37:55;;;;;;;3.03;2.67;;;;;;;31.45;71.26;100566.06;5019969;28;66545;-38
2021/10/09 04:40:35;;;;;;;3.30;2.27;;;;;;;31.45;70.88;100552.50;5043587;28;70010;-38
2021/10/09 04:43:15;;;;;;;2.72;2.50;;;;;;;31.43;71.33;100554.66;5022225;28;65795;-38
2021/10/09 04:45:51;;;;;;;2.83;2.50;;;;;;;31.52;70.93;100553.25;5048556;28;70224;-38
2021/10/09 04:48:29;;;;;;;5.50;2.50;;;;;;;31.23;70.59;100498.00;5044675;28;66528;-39
2021/10/09 04:51:12;;;;;;;3.53;2.22;;;;;;;31.44;71.08;100518.34;5045630;28;68420;-38
2021/10/09 04:53:56;;;;;;;4.07;2.30;;;;;;;31.50;70.82;100528.25;5049937;28;66784;-38
2021/10/09 04:56:33;;;;;;;2.80;2.35;;;;;;;31.52;70.77;100522.59;5027817;28;71127;-37
2021/10/09 04:59:09;;;;;;;4.38;2.65;;;;;;;31.58;70.47;100535.22;5051013;28;66052;-38
2021/10/09 05:01:52;;;;;;;5.28;2.55;;;;;;;31.59;70.71;100524.16;5036527;28;70034;-37
2021/10/09 05:04:30;;;;;;;5.05;2.80;;;;;;;31.58;70.88;100517.06;5046500;28;65471;-37
2021/10/09 05:07:08;;;;;;;2.88;2.08;;;;;;;31.60;70.44;100520.38;5044489;28;69684;-38
2021/10/09 05:09:49;;;;;;;3.22;2.15;;;;;;;31.63;70.06;100510.13;5046086;28;66373;-38
2021/10/09 05:12:36;;;;;;;2.47;2.25;;;;;;;31.65;69.88;100505.28;5049684;28;70063;-37
2021/10/09 05:15:16;;;;;;;3.80;2.47;;;;;;;31.56;70.10;100489.34;5021012;28;65970;-37
2021/10/09 05:18:03;;;;;;;4.60;2.33;;;;;;;31.68;69.70;100494.81;5053570;27;70489;-39
2021/10/09 05:20:40;;;;;;;3.33;2.63;;;;;;;31.70;69.91;100486.41;5033970;28;66031;-38
2021/10/09 05:23:21;;;;;;;3.70;2.10;;;;;;;31.77;70.43;100485.25;5019551;28;70095;-38
2021/10/09 05:25:58;;;;;;;2.42;2.20;;;;;;;31.87;70.48;100490.06;5034211;28;66305;-39
2021/10/09 05:28:47;;;;;;;3.67;2.40;;;;;;;31.94;70.19;100477.25;5064450;27;69413;-37
2021/10/09 05:31:26;;;;;;;6.60;2.00;;;;;;;31.96;70.37;100480.56;5019862;28;65318;-38
2021/10/09 05:34:04;;;;;;;4.22;1.95;;;;;;;31.99;70.28;100469.22;5045990;28;69445;-38
2021/10/09 05:36:43;;;;;;;7.80;2.05;;;;;;;32.04;70.23;100461.19;5035295;28;65633;-37
2021/10/09 05:39:30;;;;;;;3.88;1.98;;;;;;;32.04;69.49;100458.50;5042736;28;70709;-38
2021/10/09 05:42:03;;;;;;;;;;;;;;;31.78;69.29;100442.66;5056329;28;65894;-38
2021/10/09 05:44:40;;;;;;;6.32;2.10;;;;;;;32.10;68.91;100458.59;5059333;28;70265;-38
2021/10/09 05:47:15;;;;;;;8.43;2.00;;;;;;;32.09;68.90;100444.19;5054163;28;66218;-38
2021/10/09 05:49:54;;;;;;;8.05;2.28;;;;;;;32.15;68.92;100442.41;5048392;28;69228;-38
2021/10/09 05:52:49;;;;;;;6.43;2.03;;;;;;;32.19;68.55;100438.16;5049342;28;65909;-38
2021/10/09 05:55:39;;;;;;;9.20;2.05;;;;;;;32.19;68.67;100424.59;5032541;28;70476;-38
2021/10/09 06:47:29;;;;;;;6.25;2.50;;;;;;;32.43;67.93;100377.31;5010945;28;66540;-38
2021/10/09 06:50:36;;;;;;;3.85;2.20;;;;;;;32.45;67.83;100377.88;5049998;28;68754;-37
2021/10/09 06:59:36;;;;;;;3.70;2.38;;;;;;;32.45;67.61;100353.44;4988155;28;66477;-36
2021/10/09 07:02:23;;;;;;;4.80;2.45;;;;;;;32.44;67.59;100342.84;4994574;28;70713;-37
2021/10/09 07:05:17;;;;;;;6.97;2.38;;;;;;;32.52;67.56;100344.38;5046207;28;66005;-38
2021/10/09 07:08:24;;;;;;;3.33;2.60;;;;;;;32.52;67.54;100368.81;5031725;28;70165;-37
2021/10/09 07:11:46;;;;;;;5.63;2.55;;;;;;;32.18;67.38;100315.22;5005048;28;66316;-37
2021/10/09 07:15:02;;;;;;;4.38;2.55;;;;;;;32.51;66.36;100386.16;5033878;28;69924;-38
2021/10/09 07:17:49;;;;;;;6.88;2.58;;;;;;;32.49;66.68;100384.50;5046424;28;67197;-37
2021/10/09 07:20:36;;;;;;;2.88;2.40;;;;;;;32.52;66.58;100421.22;5035623;28;70231;-38
2021/10/09 07:23:35;;;;;;;5.20;2.60;;;;;;;32.51;65.64;100440.44;5033618;28;66532;-37
2021/10/09 07:26:17;;;;;;;2.92;2.60;;;;;;;32.48;66.01;100437.16;5063493;27;69963;-37
2021/10/09 07:29:43;;;;;;;6.85;3.38;;;;;;;32.43;66.17;100434.31;5050329;28;66973;-37
2021/10/09 07:32:36;;;;;;;4.35;3.45;;;;;;;32.40;66.44;100423.94;5048279;28;70029;-38
2021/10/09 07:35:38;;;;;;;5.43;3.25;;;;;;;32.36;66.31;100417.34;5011688;28;66113;-40
2021/10/09 07:38:18;;;;;;;6.35;3.25;;;;;;;32.34;66.63;100396.94;5010819;28;70200;-37
2021/10/09 07:41:51;;;;;;;4.28;2.70;;;;;;;32.33;66.74;100403.44;5013292;28;65472;-38
2021/10/09 07:44:42;;;;;;;4.22;2.80;;;;;;;32.29;66.70;100405.81;5009918;28;70034;-37
2021/10/09 07:47:39;;;;;;;3.03;2.53;;;;;;;32.29;66.42;100403.09;4945181;28;65387;-37
2021/10/09 07:50:40;;;;;;;4.07;2.40;;;;;;;32.17;67.06;100391.44;5024148;28;70306;-37
2021/10/09 07:53:46;;;;;;;4.82;2.60;;;;;;;32.25;66.62;100393.78;5010554;28;65287;-37
2021/10/09 07:56:40;;;;;;;8.57;2.70;;;;;;;32.20;67.10;100382.81;5013257;28;70301;-37
2021/10/09 07:59:34;;;;;;;4.88;2.58;;;;;;;32.22;66.67;100377.97;5014116;28;65281;-38
2021/10/09 08:02:27;;;;;;;4.20;2.78;;;;;;;32.18;67.31;100376.78;5008381;28;69428;-37
2021/10/09 08:05:22;;;;;;;5.57;2.63;;;;;;;32.16;67.21;100363.50;5027062;28;65462;-37
2021/10/09 08:08:12;;;;;;;7.18;2.60;;;;;;;32.13;67.22;100358.53;5013369;28;69648;-37
2021/10/09 08:11:01;;;;;;;4.40;2.65;;;;;;;32.08;67.24;100354.91;4994019;28;66314;-38
2021/10/09 08:13:52;;;;;;;13.45;3.38;;;;;;;32.10;67.23;100358.22;5053018;27;70009;-38
2021/10/09 08:17:05;;;;;;;16.45;2.63;;;;;;;32.07;67.24;100369.53;5043689;28;66564;-38
2021/10/09 08:19:55;;;;;;;23.23;3.20;;;;;;;32.02;67.39;100373.78;5050570;28;69908;-38
2021/10/09 08:23:03;;;;;;;9.05;2.97;;;;;;;32.00;67.36;100375.91;5049590;28;67023;-38
2021/10/09 08:39:11;;;;;;;15.13;4.00;;;;;;;31.67;67.98;100359.44;5030011;28;70717;-39
2021/10/09 08:41:59;;;;;;;16.20;3.75;;;;;;;31.88;67.96;100399.50;5005891;28;66063;-39
2021/10/09 08:44:44;;;;;;;8.73;4.80;;;;;;;31.89;68.11;100409.28;5011608;28;70071;-39
2021/10/09 08:48:11;;;;;;;15.18;6.15;;;;;;;31.82;68.30;100424.88;5007161;28;65052;-39
2021/10/09 08:50:58;;;;;;;9.65;6.93;;;;;;;31.87;68.50;100435.00;5006337;28;69192;-38
2021/10/09 08:53:52;;;;;;;6.30;4.65;;;;;;;31.86;68.41;100436.88;5003834;28;66185;-39
2021/10/09 08:56:50;;;;;;;10.10;3.92;;;;;;;31.82;68.48;100427.59;4990994;28;70636;-38
2021/10/09 08:59:30;;;;;;;5.43;3.28;;;;;;;31.82;68.17;100422.16;5017799;28;66538;-38
2021/10/09 09:02:28;;;;;;;8.05;5.25;;;;;;;31.76;68.37;100431.22;5029086;28;69381;-39
2021/10/09 09:05:59;;;;;;;7.30;3.55;;;;;;;31.68;67.28;100421.59;5015061;28;66201;-39
2021/10/09 09:25:51;;;;;;;9.30;4.53;;;;;;;31.28;68.05;100405.16;5009121;28;66546;-39
2021/10/09 09:41:31;;;;;;;10.13;7.85;;;;;;;31.19;68.33;100420.13;5025700;28;69559;-38
2021/10/09 09:44:19;;;;;;;6.43;5.30;;;;;;;30.98;67.50;100403.38;5034617;28;66607;-38
2021/10/09 09:47:39;;;;;;;5.78;4.30;;;;;;;30.96;67.50;100424.44;5027037;28;70103;-38
2021/10/09 09:50:25;;;;;;;7.70;4.93;;;;;;;31.09;67.74;100429.66;5031315;28;66504;-38
2021/10/09 09:53:12;;;;;;;6.30;5.20;;;;;;;30.79;67.75;100363.84;5031141;28;69319;-38
2021/10/09 09:56:21;;;;;;;7.35;6.00;;;;;;;30.50;68.11;100323.84;5030064;28;65251;-38
2021/10/09 09:59:15;;;;;;;5.07;4.68;;;;;;;31.14;68.08;100421.63;5019002;28;69351;-38
2021/10/09 10:02:11;;;;;;;6.13;5.53;;;;;;;30.90;67.99;100382.03;5010319;28;66054;-38
2021/10/09 10:04:50;;;;;;;6.75;4.53;;;;;;;31.20;68.22;100424.47;5021803;28;69952;-39
2021/10/09 10:07:24;;;;;;;10.30;5.28;;;;;;;31.25;68.38;100433.53;4973867;28;66592;-37
2021/10/09 10:10:03;;;;;;;7.93;5.25;;;;;;;31.26;68.29;100435.22;5025389;28;70548;-37
2021/10/09 10:12:55;;;;;;;9.35;4.30;;;;;;;31.30;68.16;100440.97;5017392;28;65656;-38
2021/10/09 10:15:37;;;;;;;7.00;4.00;;;;;;;31.30;68.35;100439.09;5020174;28;70602;-37
2021/10/09 10:18:52;;;;;;;14.07;5.75;;;;;;;30.97;70.92;100404.41;5026033;28;66347;-37
2021/10/09 10:21:37;;;;;;;11.23;4.30;;;;;;;31.28;69.86;100443.09;5021250;28;70479;-34
2021/10/09 10:24:34;;;;;;;4.90;4.50;;;;;;;31.02;69.46;100401.81;5030195;28;66062;-34
2021/10/09 10:27:51;;;;;;;4.43;3.63;;;;;;;31.27;69.06;100461.25;5028740;28;70463;-34
2021/10/09 10:30:37;;;;;;;6.97;4.60;;;;;;;31.36;69.37;100461.75;5014221;28;66512;-34
2021/10/09 10:33:32;;;;;;;5.47;4.13;;;;;;;31.38;69.41;100448.81;5028541;28;69208;-39
2021/10/09 10:36:07;;;;;;;7.85;4.32;;;;;;;31.08;69.15;100408.19;5032387;28;66169;-38
2021/10/09 10:38:49;;;;;;;5.47;4.28;;;;;;;31.39;68.97;100455.88;5029744;28;70327;-37
2021/10/09 10:41:48;;;;;;;5.75;4.20;;;;;;;31.29;69.19;100452.91;5013989;28;64672;-36
2021/10/09 10:45:17;;;;;;;4.90;3.75;;;;;;;31.27;69.28;100455.00;5028979;28;70193;-35
2021/10/09 10:51:13;;;;;;;5.38;3.95;;;;;;;31.37;68.85;100460.69;4955644;28;69441;-39
2021/10/09 10:57:15;;;;;;;4.70;4.13;;;;;;;31.36;69.29;100468.00;5014296;28;71010;-36
2021/10/09 11:00:13;;;;;;;6.22;3.38;;;;;;;30.98;69.12;100416.91;5030688;28;66731;-36
2021/10/09 11:03:13;;;;;;;3.58;3.38;;;;;;;31.10;69.34;100430.47;5020715;28;70186;-36
2021/10/09 11:05:46;;;;;;;5.55;3.83;;;;;;;31.37;69.27;100476.94;5023481;28;66815;-35
2021/10/09 11:08:21;;;;;;;6.57;3.40;;;;;;;31.36;69.66;100480.72;5028689;28;70279;-35
2021/10/09 11:11:00;;;;;;;3.88;3.58;;;;;;;31.37;69.23;100482.38;5026814;28;66339;-35
2021/10/09 11:13:38;;;;;;;4.55;4.20;;;;;;;31.37;69.34;100491.34;5027006;28;70665;-36
2021/10/09 11:16:15;;;;;;;5.47;3.55;;;;;;;31.35;69.53;100498.03;5042725;28;66330;-35
2021/10/09 11:19:08;;;;;;;5.10;4.70;;;;;;;31.34;69.66;100490.94;5024820;28;70065;-36
2021/10/09 11:21:56;;;;;;;5.20;4.70;;;;;;;31.37;70.00;100506.75;5019853;28;66028;-36
2021/10/09 11:24:53;;;;;;;5.65;4.93;;;;;;;31.05;70.55;100457.44;5028469;28;70115;-36
2021/10/09 11:27:42;;;;;;;5.47;5.05;;;;;;;31.35;70.24;100506.16;5020280;28;65450;-36
2021/10/09 11:30:32;;;;;;;6.35;4.80;;;;;;;30.95;70.55;100444.44;4993433;28;70667;-36
2021/10/09 11:33:40;;;;;;;8.95;4.70;;;;;;;31.34;70.17;100512.63;5029398;28;66451;-35
2021/10/09 11:36:21;;;;;;;5.28;4.80;;;;;;;31.34;70.77;100518.03;5006282;28;70085;-36
2021/10/09 11:39:15;;;;;;;5.55;5.03;;;;;;;31.03;70.77;100476.59;5028524;28;65450;-36
2021/10/09 11:42:12;;;;;;;7.47;5.00;;;;;;;31.33;71.11;100510.97;5035128;28;70145;-36
2021/10/09 11:45:32;;;;;;;7.15;6.50;;;;;;;31.26;70.93;100523.78;5019835;28;67332;-35
2021/10/09 11:55:16;;;;;;;7.28;6.72;;;;;;;31.20;72.14;100517.41;5029523;28;70327;-35
2021/10/09 11:58:13;;;;;;;11.82;7.10;;;;;;;31.29;71.40;100526.06;5015576;28;66166;-35
2021/10/09 12:01:01;;;;;;;9.25;6.72;;;;;;;31.28;71.40;100518.97;5030451;28;69970;-42
2021/10/09 12:04:36;;;;;;;8.57;7.78;;;;;;;31.21;72.00;100519.09;5024343;28;66589;-34
2021/10/09 12:07:24;;;;;;;8.77;7.97;;;;;;;31.28;71.67;100519.78;5027787;28;69387;-36
2021/10/09 12:10:16;;;;;;;8.40;7.65;;;;;;;30.98;72.11;100471.09;5030405;28;66281;-37
2021/10/09 12:13:12;;;;;;;8.57;7.78;;;;;;;31.29;72.45;100526.06;5028448;28;69032;-35
2021/10/09 12:16:43;;;;;;;8.77;7.85;;;;;;;31.23;72.35;100525.09;5080883;27;43797;-40
2021/10/09 12:19:39;;;;;;;9.63;8.68;;;;;;;31.27;71.95;100528.16;5063834;27;69215;-39
2021/10/09 12:22:20;;;;;;;9.43;8.52;;;;;;;31.03;72.01;100490.16;5061825;27;66258;-39
2021/10/09 12:25:03;;;;;;;8.63;7.78;;;;;;;31.29;72.05;100536.91;5067638;27;69593;-40
2021/10/09 12:27:44;;;;;;;9.23;8.43;;;;;;;31.27;71.84;100545.25;5050129;28;65524;-39
2021/10/09 12:31:29;;;;;;;10.20;8.82;;;;;;;31.28;72.12;100556.91;5061668;28;71308;-39
2021/10/09 12:34:44;;;;;;;9.00;8.40;;;;;;;31.06;72.27;100543.88;5061690;27;66402;-39
2021/10/09 12:37:35;;;;;;;9.10;8.50;;;;;;;31.19;71.92;100569.13;5066853;28;70087;-39
2021/10/09 12:40:49;;;;;;;13.02;8.80;;;;;;;31.03;72.38;100559.75;5066063;27;66262;-38
2021/10/09 12:43:34;;;;;;;9.80;8.90;;;;;;;31.01;72.12;100545.63;5043732;27;69573;-39
2021/10/09 12:46:50;;;;;;;10.03;9.23;;;;;;;31.20;72.24;100587.03;5065106;28;65850;-39
2021/10/09 12:49:29;;;;;;;10.47;9.33;;;;;;;31.23;71.80;100587.44;5042469;28;70095;-40
2021/10/09 12:53:03;;;;;;;11.15;10.10;;;;;;;31.22;71.92;100585.75;5124123;27;43778;-39
2021/10/09 12:55:41;;;;;;;11.23;10.20;;;;;;;31.15;72.04;100580.44;5087942;27;70008;-39
2021/10/09 12:58:28;;;;;;;11.32;10.23;;;;;;;31.18;71.84;100584.56;5088107;27;66277;-38
2021/10/09 13:02:03;;;;;;;11.93;10.57;;;;;;;31.24;71.36;100593.66;5082739;27;44683;-40
2021/10/09 13:04:56;;;;;;;12.13;10.50;;;;;;;31.20;72.02;100592.47;5068324;27;70131;-39
2021/10/09 13:08:15;;;;;;;12.80;11.65;;;;;;;31.19;71.35;100597.06;5062332;27;66441;-39
2021/10/09 13:11:02;;;;;;;15.13;11.68;;;;;;;31.16;71.66;100598.34;5072161;27;69784;-39
2021/10/09 13:14:23;;;;;;;12.88;11.52;;;;;;;31.13;71.95;100604.22;5063561;27;66412;-39
2021/10/09 13:17:10;;;;;;;14.00;12.13;;;;;;;31.16;71.63;100611.88;5043240;28;68840;-39
2021/10/09 13:20:16;;;;;;;13.82;11.68;;;;;;;30.86;71.43;100592.88;5027735;27;65670;-39
2021/10/09 13:23:16;;;;;;;15.18;13.10;;;;;;;31.09;72.05;100635.53;5087353;27;69334;-39
2021/10/09 13:26:07;;;;;;;13.32;11.52;;;;;;;31.14;71.55;100643.78;5078346;27;66407;-39
2021/10/09 13:29:15;;;;;;;15.10;12.48;;;;;;;31.10;71.54;100642.59;5054592;27;70040;-39
2021/10/09 13:32:34;;;;;;;19.00;12.57;;;;;;;31.10;72.25;100639.91;5064081;27;65834;-39
2021/10/09 13:36:03;;;;;;;14.15;12.15;;;;;;;31.11;71.64;100644.25;5009919;28;69636;-39
2021/10/09 13:39:30;;;;;;;13.27;11.52;;;;;;;31.10;71.42;100653.44;5041413;28;66216;-39
2021/10/09 13:43:16;;;;;;;11.32;10.38;;;;;;;30.96;71.65;100660.06;5042469;28;70063;-38
2021/10/09 13:46:28;;;;;;;13.80;10.50;;;;;;;31.08;71.49;100660.97;5046963;28;66036;-39
2021/10/09 13:50:07;;;;;;;19.52;12.27;;;;;;;30.71;71.27;100631.16;5027070;28;70732;-39
2021/10/09 13:53:24;;;;;;;15.07;12.00;;;;;;;31.00;71.55;100680.22;5044099;28;66259;-38
2021/10/09 13:56:38;;;;;;;18.10;10.98;;;;;;;31.06;71.08;100682.03;5031137;28;71081;-39
2021/10/09 13:59:41;;;;;;;13.15;10.88;;;;;;;31.07;71.09;100681.00;5043408;28;66550;-38
2021/10/09 14:02:38;;;;;;;18.48;12.45;;;;;;;31.04;71.01;100678.75;5013727;28;69954;-38
2021/10/09 14:05:38;;;;;;;13.52;11.05;;;;;;;31.04;70.92;100686.03;5052965;28;66459;-38
2021/10/09 14:09:21;;;;;;;15.13;11.55;;;;;;;31.02;70.97;100682.72;5048914;28;70210;-38
2021/10/09 14:12:40;;;;;;;12.32;10.98;;;;;;;31.03;71.42;100687.91;5035947;28;66322;-38
2021/10/09 14:16:42;;;;;;;14.10;11.35;;;;;;;30.64;70.84;100637.69;5033419;28;70378;-38
2021/10/09 14:20:52;;;;;;;15.35;11.82;;;;;;;30.91;70.83;100692.44;5102492;27;43646;-38
2021/10/09 14:24:00;;;;;;;13.55;11.48;;;;;;;30.98;71.06;100687.78;5043591;27;68655;-38
2021/10/09 14:27:00;;;;;;;19.58;10.30;;;;;;;31.03;71.08;100700.63;5051929;27;66806;-39
2021/10/09 14:30:35;;;;;;;11.40;10.18;;;;;;;30.97;71.31;100702.34;5094207;27;70050;-38
2021/10/09 14:33:48;;;;;;;15.18;10.50;;;;;;;31.01;70.92;100691.88;5070162;27;66613;-38
2021/10/09 14:37:07;;;;;;;11.13;10.02;;;;;;;31.02;71.29;100699.81;5086205;27;70398;-39
2021/10/09 14:40:36;;;;;;;9.90;9.00;;;;;;;31.00;71.32;100701.91;5088350;27;65252;-38
2021/10/09 14:43:56;;;;;;;10.73;9.70;;;;;;;30.98;71.25;100698.63;5084444;27;70249;-36
2021/10/09 14:47:37;;;;;;;10.57;9.50;;;;;;;30.98;71.10;100701.31;5094749;27;65014;-35
2021/10/09 14:54:10;;;;;;;13.52;9.35;;;;;;;30.96;71.50;100711.53;5035090;28;65447;-35
2021/10/09 15:20:30;;;;;;;7.45;6.85;;;;;;;30.96;71.19;100703.41;5081432;27;70332;-38
2021/10/09 15:23:08;;;;;;;7.05;6.45;;;;;;;30.71;70.93;100660.94;5071286;27;65247;-37
2021/10/09 15:26:05;;;;;;;6.43;5.93;;;;;;;30.96;71.01;100700.72;5070886;27;71489;-36
2021/10/09 15:28:44;;;;;;;8.60;6.60;;;;;;;30.96;71.39;100706.13;5081626;27;65668;-36
2021/10/09 15:31:33;;;;;;;6.68;6.13;;;;;;;30.96;71.32;100700.72;5069745;27;70415;-36
2021/10/09 15:34:16;;;;;;;7.25;6.65;;;;;;;30.94;71.25;100709.03;5074426;27;65659;-36
2021/10/09 15:36:54;;;;;;;7.03;6.43;;;;;;;30.94;71.36;100708.22;5036244;27;69227;-36
2021/10/09 15:39:41;;;;;;;7.22;6.50;;;;;;;30.93;71.65;100702.00;5082945;27;65412;-36
2021/10/09 15:42:25;;;;;;;7.00;6.40;;;;;;;30.90;71.34;100690.78;5068611;27;69195;-37
2021/10/09 15:44:59;;;;;;;6.30;5.70;;;;;;;30.90;71.26;100696.19;5059656;27;65571;-36
2021/10/09 15:47:39;;;;;;;6.95;6.25;;;;;;;30.94;71.48;100702.81;5062399;27;69387;-36
2021/10/09 15:50:14;;;;;;;7.95;5.82;;;;;;;30.95;71.48;100699.03;5080581;27;66134;-37
2021/10/09 15:52:51;;;;;;;5.90;5.30;;;;;;;30.91;70.99;100687.84;5087803;27;68940;-36
2021/10/09 15:55:29;;;;;;;6.47;5.22;;;;;;;30.94;71.33;100698.22;5077171;27;66173;-37
2021/10/09 15:58:05;;;;;;;5.60;5.10;;;;;;;30.88;70.99;100682.03;5056873;27;70243;-37
2021/10/09 16:00:44;;;;;;;5.53;5.03;;;;;;;30.93;71.24;100691.16;5075189;27;66595;-36
2021/10/09 16:03:20;;;;;;;6.72;5.50;;;;;;;30.93;71.38;100679.50;5075853;27;69956;-38
2021/10/09 16:05:56;;;;;;;8.27;6.47;;;;;;;30.91;71.25;100676.19;5064141;27;66092;-38
2021/10/09 16:08:33;;;;;;;10.25;6.82;;;;;;;30.97;71.42;100674.44;5075058;27;71043;-38